createdAt,value
2022-09-02T00:00:14.997Z,4.00
2022-09-02T00:01:18.187Z,3.50
2022-09-02T00:02:21.547Z,4.00
2022-09-02T00:03:24.957Z,4.50
2022-09-02T00:04:28.406Z,4.00
2022-09-02T00:05:31.740Z,5.00
2022-09-02T00:06:35.632Z,5.00
2022-09-02T00:07:38.706Z,4.00
2022-09-02T00:08:41.783Z,4.00
2022-09-02T00:09:44.966Z,5.00
2022-09-02T00:10:48.108Z,4.00
2022-09-02T00:11:51.233Z,3.75
2022-09-02T00:12:54.431Z,4.00
2022-09-02T00:13:57.497Z,4.25
2022-09-02T00:15:00.782Z,4.00
2022-09-02T00:16:04.041Z,3.50
2022-09-02T00:17:07.138Z,4.00
2022-09-02T00:18:10.931Z,5.00
2022-09-02T00:19:14.634Z,4.50
2022-09-02T00:20:17.907Z,4.50
2022-09-02T00:21:21.165Z,5.00
2022-09-02T00:22:24.184Z,4.50
2022-09-02T00:23:27.479Z,3.50
2022-09-02T00:24:30.548Z,4.00
2022-09-02T00:25:33.819Z,5.00
2022-09-02T00:26:37.107Z,4.00
2022-09-02T00:27:40.298Z,4.75
2022-09-02T00:28:48.850Z,5.00
2022-09-02T00:29:47.984Z,5.50
2022-09-02T00:30:51.016Z,5.00
2022-09-02T00:31:54.231Z,5.00
2022-09-02T00:32:57.283Z,3.50
2022-09-02T00:34:00.398Z,3.00
2022-09-02T00:35:03.459Z,3.50
2022-09-02T00:36:06.669Z,4.50
2022-09-02T00:37:09.848Z,4.00
2022-09-02T00:38:12.832Z,3.50
2022-09-02T00:39:16.107Z,4.50
2022-09-02T00:40:19.332Z,4.00
2022-09-02T00:41:22.674Z,3.75
2022-09-02T00:42:26.061Z,4.50
2022-09-02T00:43:29.258Z,5.50
2022-09-02T00:44:32.396Z,4.75
2022-09-02T00:45:35.674Z,4.25
2022-09-02T00:46:39.009Z,4.25
2022-09-02T00:47:42.380Z,3.50
2022-09-02T00:48:45.871Z,4.25
2022-09-02T00:49:49.359Z,3.50
2022-09-02T00:50:52.853Z,3.50
2022-09-02T00:51:56.025Z,4.50
2022-09-02T00:52:59.623Z,4.75
2022-09-02T00:54:02.900Z,4.50
2022-09-02T00:55:06.039Z,4.50
2022-09-02T00:56:09.168Z,5.00
2022-09-02T00:57:12.299Z,5.00
2022-09-02T00:58:15.430Z,5.00
2022-09-02T00:59:18.467Z,4.50
2022-09-02T01:00:21.481Z,3.50
2022-09-02T01:01:24.707Z,3.75
2022-09-02T01:02:27.892Z,4.00
2022-09-02T01:03:31.025Z,4.50
2022-09-02T01:04:34.319Z,5.00
2022-09-02T01:05:40.561Z,4.00
2022-09-02T01:06:41.800Z,2.50
2022-09-02T01:07:44.895Z,3.60
2022-09-02T01:08:48.049Z,3.75
2022-09-02T01:09:51.139Z,4.50
2022-09-02T01:10:54.233Z,3.50
2022-09-02T01:11:57.412Z,3.50
2022-09-02T01:13:00.601Z,3.25
2022-09-02T01:14:03.684Z,4.50
2022-09-02T01:15:06.909Z,3.75
2022-09-02T01:16:09.931Z,3.00
2022-09-02T01:17:13.518Z,3.25
2022-09-02T01:18:16.699Z,4.00
2022-09-02T01:19:20.103Z,4.50
2022-09-02T01:20:25.595Z,4.50
2022-09-02T01:21:27.537Z,5.00
2022-09-02T01:22:30.767Z,5.25
2022-09-02T01:23:34.766Z,3.50
2022-09-02T01:24:38.255Z,3.00
2022-09-02T01:25:41.642Z,3.50
2022-09-02T01:26:44.919Z,4.00
2022-09-02T01:27:48.022Z,4.60
2022-09-02T01:28:51.387Z,4.50
2022-09-02T01:29:54.440Z,3.25
2022-09-02T01:30:57.558Z,4.00
2022-09-02T01:32:00.889Z,4.00
2022-09-02T01:33:04.112Z,4.25
2022-09-02T01:34:07.393Z,3.00
2022-09-02T01:35:10.681Z,4.00
2022-09-02T01:36:13.971Z,4.50
2022-09-02T01:37:17.047Z,3.75
2022-09-02T01:38:20.430Z,4.50
2022-09-02T01:39:23.724Z,4.50
2022-09-02T01:40:27.245Z,3.50
2022-09-02T01:41:30.496Z,3.00
2022-09-02T01:42:33.779Z,3.00
2022-09-02T01:43:36.863Z,4.00
2022-09-02T01:44:40.236Z,3.50
2022-09-02T01:45:43.520Z,3.25
2022-09-02T01:46:46.894Z,3.00
2022-09-02T01:47:50.004Z,4.00
2022-09-02T01:48:53.277Z,4.50
2022-09-02T01:49:59.643Z,4.00
2022-09-02T01:51:03.225Z,5.00
2022-09-02T01:52:06.508Z,4.50
2022-09-02T01:53:09.889Z,4.00
2022-09-02T01:54:13.183Z,4.25
2022-09-02T01:55:16.360Z,4.00
2022-09-02T01:56:19.539Z,4.50
2022-09-02T01:57:22.729Z,5.00
2022-09-02T01:58:25.902Z,4.00
2022-09-02T01:59:29.083Z,3.75
2022-09-02T02:00:32.653Z,4.00
2022-09-02T02:01:36.002Z,4.00
2022-09-02T02:02:39.345Z,5.00
2022-09-02T02:03:42.936Z,6.00
2022-09-02T02:04:46.530Z,4.00
2022-09-02T02:05:49.914Z,4.00
2022-09-02T02:06:53.450Z,5.50
2022-09-02T02:07:57.508Z,5.25
2022-09-02T02:09:00.895Z,5.50
2022-09-02T02:10:04.161Z,5.50
2022-09-02T02:11:07.361Z,4.50
2022-09-02T02:12:10.745Z,5.00
2022-09-02T02:13:14.085Z,5.50
2022-09-02T02:14:17.722Z,4.75
2022-09-02T02:15:20.907Z,5.00
2022-09-02T02:16:24.106Z,3.50
2022-09-02T02:17:27.266Z,4.50
2022-09-02T02:18:30.421Z,4.50
2022-09-02T02:19:33.430Z,5.50
2022-09-02T02:20:36.619Z,5.50
2022-09-02T02:21:39.792Z,5.50
2022-09-02T02:22:42.773Z,5.50
2022-09-02T02:23:45.802Z,6.50
2022-09-02T02:24:48.824Z,7.00
2022-09-02T02:25:52.009Z,6.50
2022-09-02T02:26:55.403Z,6.00
2022-09-02T02:27:58.679Z,6.00
2022-09-02T02:29:02.342Z,5.00
2022-09-02T02:30:05.582Z,4.75
2022-09-02T02:31:08.675Z,5.50
2022-09-02T02:32:12.083Z,4.75
2022-09-02T02:33:15.299Z,4.50
2022-09-02T02:34:18.482Z,4.00
2022-09-02T02:35:21.681Z,3.00
2022-09-02T02:36:24.863Z,5.25
2022-09-02T02:37:28.047Z,6.00
2022-09-02T02:38:31.316Z,6.00
2022-09-02T02:39:34.908Z,6.00
2022-09-02T02:40:38.148Z,5.50
2022-09-02T02:41:44.639Z,4.50
2022-09-02T02:42:46.295Z,4.00
2022-09-02T02:43:49.478Z,4.50
2022-09-02T02:44:52.779Z,4.50
2022-09-02T02:45:55.951Z,4.00
2022-09-02T02:46:59.411Z,4.50
2022-09-02T02:48:02.679Z,5.50
2022-09-02T02:49:05.908Z,4.50
2022-09-02T02:50:09.082Z,5.00
2022-09-02T02:51:12.130Z,5.50
2022-09-02T02:52:15.439Z,4.75
2022-09-02T02:53:18.776Z,5.50
2022-09-02T02:54:21.805Z,4.50
2022-09-02T02:55:24.995Z,4.50
2022-09-02T02:56:28.070Z,4.75
2022-09-02T02:57:31.152Z,5.00
2022-09-02T02:58:34.737Z,5.00
2022-09-02T02:59:37.945Z,5.00
2022-09-02T03:00:41.414Z,5.50
2022-09-02T03:01:45.033Z,4.00
2022-09-02T03:02:48.525Z,4.00
2022-09-02T03:03:51.992Z,5.00
2022-09-02T03:04:55.161Z,3.75
2022-09-02T03:05:58.563Z,3.50
2022-09-02T03:07:01.846Z,4.00
2022-09-02T03:08:05.192Z,4.25
2022-09-02T03:09:08.203Z,3.00
2022-09-02T03:10:11.682Z,2.75
2022-09-02T03:11:14.830Z,3.00
2022-09-02T03:12:17.843Z,3.50
2022-09-02T03:13:21.198Z,3.00
2022-09-02T03:14:24.418Z,3.00
2022-09-02T03:15:27.588Z,3.00
2022-09-02T03:16:30.819Z,4.50
2022-09-02T03:17:34.164Z,5.00
2022-09-02T03:18:37.547Z,3.50
2022-09-02T03:19:40.728Z,3.00
2022-09-02T03:20:44.123Z,3.00
2022-09-02T03:21:47.512Z,3.00
2022-09-02T03:22:51.082Z,3.00
2022-09-02T03:23:54.377Z,3.50
2022-09-02T03:24:58.789Z,4.00
2022-09-02T03:26:02.080Z,2.50
2022-09-02T03:27:05.459Z,3.25
2022-09-02T03:28:08.860Z,3.75
2022-09-02T03:29:12.028Z,3.00
2022-09-02T03:30:15.521Z,3.50
2022-09-02T03:31:18.828Z,3.50
2022-09-02T03:32:21.986Z,3.50
2022-09-02T03:33:26.084Z,3.75
2022-09-02T03:34:29.156Z,3.50
2022-09-02T03:35:32.466Z,3.50
2022-09-02T03:36:35.731Z,3.50
2022-09-02T03:37:39.017Z,2.50
2022-09-02T03:38:42.271Z,3.50
2022-09-02T03:39:45.600Z,3.50
2022-09-02T03:40:49.029Z,4.00
2022-09-02T03:41:52.168Z,4.00
2022-09-02T03:42:59.747Z,2.50
2022-09-02T03:43:59.558Z,3.00
2022-09-02T03:45:02.930Z,3.50
2022-09-02T03:46:06.039Z,2.75
2022-09-02T03:47:09.047Z,3.50
2022-09-02T03:48:12.068Z,3.00
2022-09-02T03:49:15.244Z,3.50
2022-09-02T03:50:18.227Z,3.00
2022-09-02T03:51:21.512Z,2.50
2022-09-02T03:52:24.799Z,2.75
2022-09-02T03:53:27.911Z,2.50
2022-09-02T03:54:31.062Z,2.50
2022-09-02T03:55:34.242Z,3.00
2022-09-02T03:56:37.419Z,3.00
2022-09-02T03:57:40.808Z,3.00
2022-09-02T03:58:43.888Z,2.00
2022-09-02T03:59:47.063Z,2.50
2022-09-02T04:00:50.563Z,2.25
2022-09-02T04:01:53.797Z,2.00
2022-09-02T04:02:57.175Z,2.25
2022-09-02T04:04:00.412Z,3.00
2022-09-02T04:05:03.775Z,3.00
2022-09-02T04:06:07.037Z,2.40
2022-09-02T04:07:10.059Z,2.00
2022-09-02T04:08:13.151Z,2.50
2022-09-02T04:09:16.215Z,4.00
2022-09-02T04:10:19.499Z,3.00
2022-09-02T04:11:22.576Z,2.25
2022-09-02T04:12:25.917Z,2.00
2022-09-02T04:13:29.965Z,2.75
2022-09-02T04:14:33.044Z,3.00
2022-09-02T04:15:36.194Z,2.50
2022-09-02T04:16:39.409Z,2.50
2022-09-02T04:17:42.485Z,2.50
2022-09-02T04:18:45.766Z,4.50
2022-09-02T04:19:49.058Z,3.00
2022-09-02T04:20:52.545Z,2.50
2022-09-02T04:21:55.724Z,2.50
2022-09-02T04:22:58.910Z,2.00
2022-09-02T04:24:02.151Z,2.50
2022-09-02T04:25:05.648Z,3.50
2022-09-02T04:26:08.868Z,2.75
2022-09-02T04:27:12.079Z,2.00
2022-09-02T04:28:15.228Z,2.75
2022-09-02T04:29:18.935Z,3.00
2022-09-02T04:30:22.087Z,2.50
2022-09-02T04:31:25.286Z,2.00
2022-09-02T04:32:28.466Z,2.00
2022-09-02T04:33:31.698Z,2.00
2022-09-02T04:34:34.928Z,2.50
2022-09-02T04:35:38.012Z,2.50
2022-09-02T04:36:41.095Z,2.50
2022-09-02T04:37:44.173Z,2.50
2022-09-02T04:38:47.828Z,2.75
2022-09-02T04:39:51.351Z,2.50
2022-09-02T04:40:54.640Z,2.50
2022-09-02T04:41:58.853Z,2.00
2022-09-02T04:43:02.128Z,1.50
2022-09-02T04:44:05.513Z,1.75
2022-09-02T04:45:08.696Z,2.00
2022-09-02T04:46:11.909Z,2.50
2022-09-02T04:47:14.927Z,3.00
2022-09-02T04:48:18.102Z,2.75
2022-09-02T04:49:21.219Z,2.50
2022-09-02T04:50:24.297Z,2.50
2022-09-02T04:51:27.480Z,3.00
2022-09-02T04:52:30.558Z,2.50
2022-09-02T04:53:33.758Z,2.50
2022-09-02T04:54:37.942Z,2.00
2022-09-02T04:55:41.132Z,1.50
2022-09-02T04:56:44.282Z,2.50
2022-09-02T04:57:47.360Z,2.75
2022-09-02T04:58:50.470Z,1.80
2022-09-02T04:59:53.655Z,2.00
2022-09-02T05:00:57.139Z,2.00
2022-09-02T05:02:00.643Z,2.00
2022-09-02T05:03:03.810Z,2.00
2022-09-02T05:04:07.094Z,1.75
2022-09-02T05:05:10.171Z,1.75
2022-09-02T05:06:13.356Z,1.50
2022-09-02T05:07:16.495Z,1.60
2022-09-02T05:08:19.513Z,1.50
2022-09-02T05:09:22.691Z,1.50
2022-09-02T05:10:25.671Z,3.00
2022-09-02T05:11:28.856Z,3.00
2022-09-02T05:12:32.031Z,2.00
2022-09-02T05:13:35.218Z,2.50
2022-09-02T05:14:38.405Z,2.00
2022-09-02T05:15:41.618Z,1.50
2022-09-02T05:16:45.171Z,1.50
2022-09-02T05:17:48.465Z,1.50
2022-09-02T05:18:52.057Z,1.50
2022-09-02T05:19:55.239Z,1.50
2022-09-02T05:20:58.310Z,1.75
2022-09-02T05:22:01.499Z,1.50
2022-09-02T05:23:04.650Z,1.75
2022-09-02T05:24:07.961Z,2.00
2022-09-02T05:25:11.139Z,2.00
2022-09-02T05:26:14.286Z,2.00
2022-09-02T05:27:17.376Z,2.75
2022-09-02T05:28:20.499Z,2.00
2022-09-02T05:29:23.674Z,2.50
2022-09-02T05:30:26.847Z,3.00
2022-09-02T05:31:30.066Z,2.25
2022-09-02T05:32:37.435Z,2.50
2022-09-02T05:33:37.925Z,2.50
2022-09-02T05:34:41.223Z,2.00
2022-09-02T05:35:45.905Z,2.50
2022-09-02T05:36:49.033Z,3.50
2022-09-02T05:37:53.832Z,3.25
2022-09-02T05:38:56.909Z,2.00
2022-09-02T05:40:00.097Z,2.50
2022-09-02T05:41:04.464Z,2.50
2022-09-02T05:42:07.684Z,2.00
2022-09-02T05:43:10.869Z,2.00
2022-09-02T05:44:14.189Z,2.25
2022-09-02T05:45:17.226Z,2.50
2022-09-02T05:46:20.470Z,2.00
2022-09-02T05:47:23.505Z,3.00
2022-09-02T05:48:26.568Z,2.50
2022-09-02T05:49:29.760Z,2.50
2022-09-02T05:50:33.863Z,2.50
2022-09-02T05:51:36.842Z,2.00
2022-09-02T05:52:40.114Z,1.60
2022-09-02T05:53:43.408Z,2.00
2022-09-02T05:54:46.698Z,2.00
2022-09-02T05:55:49.979Z,1.40
2022-09-02T05:56:53.356Z,2.00
2022-09-02T05:57:56.745Z,2.50
2022-09-02T05:59:00.807Z,2.00
2022-09-02T06:00:04.235Z,2.25
2022-09-02T06:01:07.414Z,2.00
2022-09-02T06:02:10.872Z,3.00
2022-09-02T06:03:14.007Z,3.00
2022-09-02T06:04:17.476Z,2.50
2022-09-02T06:05:20.663Z,2.00
2022-09-02T06:06:23.733Z,2.00
2022-09-02T06:07:26.817Z,2.60
2022-09-02T06:08:29.892Z,2.50
2022-09-02T06:09:33.075Z,2.00
2022-09-02T06:10:36.313Z,2.00
2022-09-02T06:11:39.648Z,2.50
2022-09-02T06:12:42.924Z,3.75
2022-09-02T06:13:46.315Z,3.00
2022-09-02T06:14:49.496Z,3.00
2022-09-02T06:15:52.922Z,3.50
2022-09-02T06:16:56.373Z,3.50
2022-09-02T06:17:59.567Z,2.50
2022-09-02T06:19:02.842Z,2.00
2022-09-02T06:20:06.117Z,3.00
2022-09-02T06:21:09.615Z,2.75
2022-09-02T06:22:12.907Z,2.50
2022-09-02T06:23:16.174Z,3.00
2022-09-02T06:24:19.351Z,2.75
2022-09-02T06:25:22.445Z,2.50
2022-09-02T06:26:25.739Z,3.50
2022-09-02T06:27:28.818Z,3.25
2022-09-02T06:28:32.304Z,3.00
2022-09-02T06:29:35.358Z,3.00
2022-09-02T06:30:38.634Z,3.50
2022-09-02T06:31:41.642Z,2.50
2022-09-02T06:32:44.920Z,2.50
2022-09-02T06:33:49.292Z,3.00
2022-09-02T06:34:52.405Z,2.50
2022-09-02T06:35:55.800Z,2.50
2022-09-02T06:36:59.175Z,3.00
2022-09-02T06:38:02.571Z,2.25
2022-09-02T06:39:05.963Z,3.00
2022-09-02T06:40:09.471Z,3.00
2022-09-02T06:41:12.529Z,2.50
2022-09-02T06:42:15.870Z,2.50
2022-09-02T06:43:19.000Z,3.00
2022-09-02T06:44:22.283Z,3.50
2022-09-02T06:45:25.347Z,3.00
2022-09-02T06:46:28.445Z,3.25
2022-09-02T06:47:31.618Z,4.00
2022-09-02T06:48:34.999Z,4.50
2022-09-02T06:49:38.384Z,2.50
2022-09-02T06:50:41.669Z,2.00
2022-09-02T06:51:45.056Z,1.50
2022-09-02T06:52:48.442Z,2.00
2022-09-02T06:53:51.834Z,2.00
2022-09-02T06:54:55.183Z,2.00
2022-09-02T06:55:58.326Z,2.50
2022-09-02T06:57:01.582Z,3.00
2022-09-02T06:58:05.068Z,2.50
2022-09-02T06:59:08.566Z,2.25
2022-09-02T07:00:11.952Z,1.50
2022-09-02T07:01:15.297Z,2.00
2022-09-02T07:02:18.943Z,3.00
2022-09-02T07:03:22.485Z,3.00
2022-09-02T07:04:25.807Z,3.00
2022-09-02T07:05:28.988Z,2.50
2022-09-02T07:06:32.400Z,2.50
2022-09-02T07:07:35.445Z,2.50
2022-09-02T07:08:38.630Z,2.50
2022-09-02T07:09:41.784Z,3.00
2022-09-02T07:10:44.860Z,3.00
2022-09-02T07:11:47.895Z,2.50
2022-09-02T07:12:51.360Z,2.00
2022-09-02T07:13:54.847Z,2.00
2022-09-02T07:14:58.172Z,2.50
2022-09-02T07:16:01.310Z,3.00
2022-09-02T07:17:04.575Z,3.00
2022-09-02T07:18:07.988Z,2.50
2022-09-02T07:19:15.113Z,2.00
2022-09-02T07:20:15.885Z,2.50
2022-09-02T07:21:19.072Z,3.00
2022-09-02T07:22:22.147Z,3.00
2022-09-02T07:23:25.127Z,4.00
2022-09-02T07:24:28.168Z,4.00
2022-09-02T07:25:31.140Z,2.50
2022-09-02T07:26:34.057Z,2.50
2022-09-02T07:27:37.136Z,2.50
2022-09-02T07:28:40.524Z,2.50
2022-09-02T07:29:43.804Z,3.00
2022-09-02T07:30:47.359Z,3.00
2022-09-02T07:31:50.485Z,3.25
2022-09-02T07:32:53.660Z,4.00
2022-09-02T07:33:56.939Z,3.50
2022-09-02T07:35:00.129Z,3.50
2022-09-02T07:36:03.604Z,3.00
2022-09-02T07:37:10.892Z,3.00
2022-09-02T07:38:12.401Z,2.75
2022-09-02T07:39:15.442Z,3.00
2022-09-02T07:40:19.014Z,3.00
2022-09-02T07:41:22.762Z,3.50
2022-09-02T07:43:28.749Z,3.50
2022-09-02T07:44:32.138Z,3.50
2022-09-02T07:45:35.462Z,3.50
2022-09-02T07:46:38.903Z,4.25
2022-09-02T07:47:42.098Z,5.00
2022-09-02T07:48:45.576Z,3.50
2022-09-02T07:50:53.303Z,3.00
2022-09-02T07:51:56.672Z,3.50
2022-09-02T07:52:59.975Z,4.00
2022-09-02T07:54:03.303Z,4.25
2022-09-02T07:55:08.513Z,3.50
2022-09-02T07:56:11.233Z,4.25
2022-09-02T07:57:14.413Z,4.00
2022-09-02T07:58:17.696Z,3.50
2022-09-02T07:59:20.780Z,3.00
2022-09-02T08:00:23.810Z,3.00
2022-09-02T08:01:26.921Z,3.25
2022-09-02T08:02:30.373Z,3.75
2022-09-02T08:03:33.607Z,3.50
2022-09-02T08:04:37.016Z,3.00
2022-09-02T08:05:40.283Z,3.00
2022-09-02T08:06:43.363Z,3.00
2022-09-02T08:07:46.648Z,3.00
2022-09-02T08:08:49.786Z,3.00
2022-09-02T08:09:53.314Z,2.50
2022-09-02T08:10:56.626Z,3.50
2022-09-02T08:12:00.052Z,3.25
2022-09-02T08:13:03.163Z,3.50
2022-09-02T08:14:06.469Z,4.00
2022-09-02T08:15:09.538Z,2.50
2022-09-02T08:16:13.573Z,2.00
2022-09-02T08:17:17.319Z,1.50
2022-09-02T08:18:21.818Z,2.00
2022-09-02T08:19:26.010Z,2.00
2022-09-02T08:20:29.633Z,3.50
2022-09-02T08:21:33.216Z,4.50
2022-09-02T08:22:37.434Z,3.50
2022-09-02T08:23:41.204Z,4.00
2022-09-02T08:24:45.253Z,3.25
2022-09-02T08:25:49.222Z,3.50
2022-09-02T08:26:52.924Z,4.50
2022-09-02T08:28:59.746Z,3.00
2022-09-02T08:30:03.590Z,3.00
2022-09-02T08:31:07.385Z,3.00
2022-09-02T08:32:11.119Z,2.50
2022-09-02T08:33:14.842Z,2.25
2022-09-02T08:34:18.181Z,2.00
2022-09-02T08:35:21.241Z,2.75
2022-09-02T08:36:24.432Z,3.50
2022-09-02T08:37:27.585Z,4.00
2022-09-02T08:38:30.763Z,4.00
2022-09-02T08:39:33.875Z,3.50
2022-09-02T08:40:37.498Z,2.50
2022-09-02T08:41:40.717Z,2.25
2022-09-02T08:42:44.645Z,2.00
2022-09-02T08:43:48.351Z,3.00
2022-09-02T08:44:51.584Z,3.00
2022-09-02T08:45:54.971Z,4.25
2022-09-02T08:46:58.268Z,4.00
2022-09-02T08:48:01.629Z,3.50
2022-09-02T08:49:04.868Z,2.75
2022-09-02T08:50:08.464Z,2.00
2022-09-02T08:51:11.947Z,2.25
2022-09-02T08:52:17.777Z,3.50
2022-09-02T08:53:19.865Z,3.00
2022-09-02T08:54:23.550Z,2.50
2022-09-02T08:55:26.619Z,3.50
2022-09-02T08:56:29.808Z,4.50
2022-09-02T08:57:33.086Z,3.00
2022-09-02T08:58:36.290Z,2.50
2022-09-02T09:00:42.478Z,4.00
2022-09-02T09:01:45.452Z,4.25
2022-09-02T09:02:48.801Z,3.00
2022-09-02T09:03:52.086Z,3.00
2022-09-02T09:04:55.456Z,4.50
2022-09-02T09:05:58.744Z,4.00
2022-09-02T09:07:02.250Z,3.50
2022-09-02T09:08:06.678Z,5.25
2022-09-02T09:09:12.287Z,4.00
2022-09-02T09:10:15.785Z,3.00
2022-09-02T09:11:19.027Z,3.50
2022-09-02T09:12:22.249Z,3.25
2022-09-02T09:13:28.305Z,3.00
2022-09-02T09:14:32.284Z,3.00
2022-09-02T09:15:38.426Z,3.50
2022-09-02T09:16:42.265Z,3.00
2022-09-02T09:17:45.711Z,2.50
2022-09-02T09:18:49.577Z,3.00
2022-09-02T09:19:53.204Z,4.00
2022-09-02T09:20:59.958Z,4.00
2022-09-02T09:22:03.489Z,3.00
2022-09-02T09:23:07.051Z,3.50
2022-09-02T09:24:10.746Z,4.00
2022-09-02T09:25:14.436Z,5.25
2022-09-02T09:26:18.050Z,4.00
2022-09-02T09:27:24.490Z,3.00
2022-09-02T09:28:28.240Z,3.25
2022-09-02T09:29:34.747Z,3.50
2022-09-02T09:30:38.335Z,3.00
2022-09-02T09:31:42.054Z,4.25
2022-09-02T09:32:45.926Z,5.00
2022-09-02T09:33:52.597Z,5.00
2022-09-02T09:34:56.239Z,4.50
2022-09-02T09:35:59.584Z,3.25
2022-09-02T09:37:05.540Z,3.60
2022-09-02T09:38:08.825Z,4.00
2022-09-02T09:39:12.100Z,4.00
2022-09-02T09:40:15.743Z,3.50
2022-09-02T09:41:18.883Z,3.50
2022-09-02T09:42:22.291Z,4.00
2022-09-02T09:43:37.823Z,3.50
2022-09-02T09:44:41.216Z,4.00
2022-09-02T09:45:44.684Z,4.00
2022-09-02T09:46:48.199Z,4.00
2022-09-02T09:47:51.753Z,3.50
2022-09-02T09:48:56.506Z,4.75
2022-09-02T09:49:59.819Z,3.75
2022-09-02T09:51:03.175Z,2.50
2022-09-02T09:52:12.481Z,2.50
2022-09-02T09:53:15.687Z,4.00
2022-09-02T09:54:19.067Z,4.00
2022-09-02T09:55:24.679Z,4.50
2022-09-02T09:56:26.867Z,4.00
2022-09-02T09:57:35.563Z,3.25
2022-09-02T09:58:34.262Z,2.50
2022-09-02T09:59:37.352Z,3.50
2022-09-02T10:00:41.264Z,3.50
2022-09-02T10:01:45.146Z,2.50
2022-09-02T10:02:48.189Z,2.00
2022-09-02T10:03:51.809Z,3.00
2022-09-02T10:05:07.766Z,3.50
2022-09-02T10:06:11.567Z,3.50
2022-09-02T10:07:14.842Z,4.00
2022-09-02T10:08:18.538Z,3.00
2022-09-02T10:09:22.150Z,2.00
2022-09-02T10:10:25.706Z,3.00
2022-09-02T10:11:29.424Z,4.00
2022-09-02T10:12:33.409Z,3.00
2022-09-02T10:13:37.213Z,2.50
2022-09-02T10:14:41.017Z,3.00
2022-09-02T10:15:44.706Z,3.75
2022-09-02T10:16:48.631Z,3.75
2022-09-02T10:17:52.775Z,3.50
2022-09-02T10:18:56.913Z,3.00
2022-09-02T10:20:01.142Z,4.50
2022-09-02T10:21:17.927Z,3.75
2022-09-02T10:22:21.629Z,2.50
2022-09-02T10:23:26.143Z,2.50
2022-09-02T10:24:29.827Z,3.00
2022-09-02T10:25:33.620Z,4.00
2022-09-02T10:26:37.751Z,3.50
2022-09-02T10:27:40.910Z,2.25
2022-09-02T10:28:44.696Z,2.25
2022-09-02T10:29:48.707Z,4.00
2022-09-02T10:30:52.495Z,3.00
2022-09-02T10:31:55.874Z,2.50
2022-09-02T10:32:59.079Z,2.00
2022-09-02T10:34:02.481Z,2.00
2022-09-02T10:35:05.780Z,3.25
2022-09-02T10:36:09.842Z,2.50
2022-09-02T10:37:13.559Z,2.00
2022-09-02T10:38:17.050Z,3.50
2022-09-02T10:39:20.529Z,3.25
2022-09-02T10:40:24.208Z,3.50
2022-09-02T10:41:27.856Z,3.00
2022-09-02T10:42:31.238Z,2.00
2022-09-02T10:43:34.699Z,2.50
2022-09-02T10:44:37.997Z,3.50
2022-09-02T10:45:41.368Z,3.00
2022-09-02T10:46:44.872Z,2.50
2022-09-02T10:47:54.374Z,2.40
2022-09-02T10:48:57.957Z,2.00
2022-09-02T10:50:01.651Z,2.00
2022-09-02T10:51:05.030Z,2.00
2022-09-02T10:52:08.442Z,2.00
2022-09-02T10:53:11.922Z,3.00
2022-09-02T10:54:15.193Z,3.00
2022-09-02T10:55:18.679Z,3.00
2022-09-02T10:56:22.280Z,3.50
2022-09-02T10:57:25.876Z,3.50
2022-09-02T10:58:29.556Z,3.00
2022-09-02T10:59:36.021Z,2.50
2022-09-02T11:00:39.440Z,3.00
2022-09-02T11:01:45.509Z,4.00
2022-09-02T11:02:51.704Z,3.25
2022-09-02T11:03:55.031Z,2.00
2022-09-02T11:04:58.578Z,1.75
2022-09-02T11:06:03.709Z,3.00
2022-09-02T11:07:07.680Z,2.50
2022-09-02T11:08:11.092Z,3.20
2022-09-02T11:09:17.698Z,2.00
2022-09-02T11:10:21.656Z,2.25
2022-09-02T11:11:25.066Z,2.00
2022-09-02T11:12:28.533Z,2.00
2022-09-02T11:13:32.432Z,3.50
2022-09-02T11:14:36.517Z,2.50
2022-09-02T11:15:42.993Z,2.00
2022-09-02T11:16:47.898Z,1.50
2022-09-02T11:17:51.763Z,2.50
2022-09-02T11:18:55.511Z,3.50
2022-09-02T11:19:58.995Z,3.00
2022-09-02T11:21:02.706Z,2.50
2022-09-02T11:22:06.385Z,2.50
2022-09-02T11:23:12.537Z,3.50
2022-09-02T11:24:16.127Z,2.50
2022-09-02T11:25:19.824Z,3.00
2022-09-02T11:26:23.313Z,3.00
2022-09-02T11:28:46.072Z,3.00
2022-09-02T11:29:50.068Z,3.50
2022-09-02T11:30:53.659Z,3.00
2022-09-02T11:31:57.346Z,2.25
2022-09-02T11:33:01.243Z,2.50
2022-09-02T11:35:08.325Z,2.50
2022-09-02T11:36:12.233Z,2.75
2022-09-02T11:37:17.964Z,4.00
2022-09-02T11:38:21.000Z,2.75
2022-09-02T11:39:36.283Z,1.75
2022-09-02T11:40:36.220Z,2.00
2022-09-02T11:41:40.379Z,1.75
2022-09-02T11:42:45.133Z,3.00
2022-09-02T11:43:48.864Z,2.50
2022-09-02T11:44:53.312Z,2.50
2022-09-02T11:45:57.874Z,3.00
2022-09-02T11:47:02.420Z,2.25
2022-09-02T11:48:05.822Z,3.00
2022-09-02T11:49:09.455Z,3.00
2022-09-02T11:50:13.242Z,2.25
2022-09-02T11:51:16.768Z,2.25
2022-09-02T11:52:20.424Z,2.50
2022-09-02T11:53:23.640Z,2.00
2022-09-02T11:54:27.310Z,2.00
2022-09-02T11:55:30.795Z,2.25
2022-09-02T11:56:34.794Z,2.25
2022-09-02T11:57:38.900Z,2.00
2022-09-02T11:58:42.383Z,1.50
2022-09-02T11:59:46.091Z,1.50
2022-09-02T12:00:51.333Z,3.00
2022-09-02T12:01:55.211Z,3.00
2022-09-02T12:03:02.547Z,2.50
2022-09-02T12:06:27.834Z,2.00
2022-09-02T12:07:32.662Z,2.50
2022-09-02T12:08:36.111Z,3.50
2022-09-02T12:09:47.804Z,3.00
2022-09-02T12:10:51.511Z,4.50
2022-09-02T12:11:54.807Z,2.50
2022-09-02T12:12:58.374Z,1.50
2022-09-02T12:14:04.625Z,1.50
2022-09-02T12:15:06.947Z,2.00
2022-09-02T12:16:10.453Z,2.75
2022-09-02T12:17:14.059Z,2.75
2022-09-02T12:18:17.597Z,3.00
2022-09-02T12:19:22.167Z,3.00
2022-09-02T12:20:25.656Z,3.00
2022-09-02T12:21:29.259Z,3.00
2022-09-02T12:22:32.528Z,2.00
2022-09-02T12:23:36.149Z,1.25
2022-09-02T12:24:39.307Z,2.00
2022-09-02T12:25:43.094Z,2.50
2022-09-02T12:26:46.471Z,2.50
2022-09-02T12:27:50.789Z,3.50
2022-09-02T12:28:54.486Z,2.50
2022-09-02T12:29:57.973Z,2.00
2022-09-02T12:31:01.918Z,2.00
2022-09-02T12:32:06.620Z,1.50
2022-09-02T12:33:10.051Z,1.50
2022-09-02T12:34:13.582Z,2.00
2022-09-02T12:35:16.632Z,1.00
2022-09-02T12:36:20.692Z,2.00
2022-09-02T12:37:23.818Z,2.00
2022-09-02T12:38:27.194Z,1.50
2022-09-02T12:39:30.732Z,3.50
2022-09-02T12:40:34.368Z,4.50
2022-09-02T12:41:37.508Z,3.50
2022-09-02T12:45:18.627Z,1.25
2022-09-02T12:46:22.508Z,1.00
2022-09-02T12:47:25.649Z,1.50
2022-09-02T12:48:38.268Z,2.25
2022-09-02T12:49:33.928Z,2.25
2022-09-02T12:50:37.250Z,2.00
2022-09-02T12:51:40.842Z,1.25
2022-09-02T12:52:44.330Z,1.75
2022-09-02T12:53:48.942Z,2.50
2022-09-02T12:54:52.189Z,2.50
2022-09-02T12:55:55.507Z,2.00
2022-09-02T12:56:59.026Z,1.00
2022-09-02T12:58:02.276Z,2.00
2022-09-02T12:59:05.473Z,2.50
2022-09-02T13:00:10.413Z,1.50
2022-09-02T13:01:13.860Z,1.00
2022-09-02T13:02:17.266Z,2.50
2022-09-02T13:03:20.818Z,3.50
2022-09-02T13:04:24.456Z,2.00
2022-09-02T13:05:28.038Z,2.00
2022-09-02T13:06:31.187Z,2.00
2022-09-02T13:07:34.485Z,2.50
2022-09-02T13:08:37.868Z,3.00
2022-09-02T13:09:41.479Z,2.00
2022-09-02T13:10:45.272Z,1.25
2022-09-02T13:11:48.867Z,2.00
2022-09-02T13:12:52.569Z,3.25
2022-09-02T13:13:56.047Z,3.50
2022-09-02T13:14:59.673Z,3.00
2022-09-02T13:16:03.214Z,3.00
2022-09-02T13:17:25.764Z,2.00
2022-09-02T13:18:10.811Z,1.75
2022-09-02T13:19:14.106Z,1.75
2022-09-02T13:20:17.800Z,3.00
2022-09-02T13:21:21.190Z,3.00
2022-09-02T13:22:24.572Z,3.25
2022-09-02T13:23:31.215Z,3.75
2022-09-02T13:24:32.368Z,2.50
2022-09-02T13:25:35.581Z,2.50
2022-09-02T13:26:49.227Z,2.50
2022-09-02T13:27:43.661Z,2.75
2022-09-02T13:28:46.952Z,1.50
2022-09-02T13:29:50.333Z,2.50
2022-09-02T13:30:53.966Z,3.00
2022-09-02T13:31:57.507Z,3.25
2022-09-02T13:33:01.009Z,2.00
2022-09-02T13:34:05.629Z,2.25
2022-09-02T13:35:08.989Z,2.50
2022-09-02T13:36:12.489Z,2.75
2022-09-02T13:37:15.747Z,3.25
2022-09-02T13:38:20.933Z,2.50
2022-09-02T13:39:23.779Z,2.25
2022-09-02T13:40:27.159Z,2.50
2022-09-02T13:41:30.453Z,2.50
2022-09-02T13:42:33.597Z,3.00
2022-09-02T13:43:37.421Z,1.50
2022-09-02T13:44:40.816Z,2.50
2022-09-02T13:45:44.208Z,2.50
2022-09-02T13:46:47.342Z,2.50
2022-09-02T13:47:50.868Z,2.00
2022-09-02T13:48:54.362Z,2.50
2022-09-02T13:49:57.916Z,2.75
2022-09-02T13:51:01.341Z,2.25
2022-09-02T13:52:05.128Z,2.50
2022-09-02T13:54:23.228Z,2.50
2022-09-02T13:55:17.712Z,2.00
2022-09-02T13:56:21.339Z,2.00
2022-09-02T13:57:24.788Z,2.25
2022-09-02T13:58:29.253Z,2.00
2022-09-02T13:59:32.628Z,2.00
2022-09-02T14:00:35.889Z,2.50
2022-09-02T14:01:39.304Z,3.25
2022-09-02T14:02:42.607Z,3.00
2022-09-02T14:03:46.244Z,2.25
2022-09-02T14:04:49.648Z,2.00
2022-09-02T14:05:53.559Z,2.50
2022-09-02T14:06:56.847Z,2.50
2022-09-02T14:08:00.127Z,2.50
2022-09-02T14:09:03.719Z,2.50
2022-09-02T14:10:07.205Z,2.50
2022-09-02T14:11:15.537Z,3.75
2022-09-02T14:12:15.823Z,3.00
2022-09-02T14:13:19.122Z,2.00
2022-09-02T14:14:22.707Z,1.50
2022-09-02T14:15:26.058Z,2.25
2022-09-02T14:16:29.269Z,2.50
2022-09-02T14:17:32.407Z,2.50
2022-09-02T14:18:35.747Z,2.00